SBI2616 UNTT-UUDD
Flight info
| Callsign | SBI2616 |
|---|---|
| Flight time | N/A |
| Altitude | 34000 |
| Route | SP1H SP A307 KUMOD N869 LITUN T580 ZENKO/K0845F360 T580 POBEM N869 REKPA N181 ROMTA ROMTA3N |
| Aircraft | A320/M-SDE3FGHIRWY/LB1 |
Departure
| Time | 2026-05-04 06:08 |
|---|---|
| Airport | Tomsk Kamov Airport (UNTT) |
Arrival
| Time | N/A |
|---|---|
| Airport | Domodedovo International Airport (UUDD) |
| Time | Latitude | Longitude | Altitude | Speed | Heading |
|---|---|---|---|---|---|
| 2026-05-04 05:41 | 56.38926 | 85.21214 | 568 ft | 0 kts | 304° |
| 2026-05-04 06:01 | 56.38925 | 85.21216 | 568 ft | 2 kts | 304° |
| 2026-05-04 06:01 | 56.38910 | 85.21253 | 573 ft | 4 kts | 311° |
| 2026-05-04 06:03 | 56.38892 | 85.21287 | 570 ft | 0 kts | 334° |
| 2026-05-04 06:03 | 56.38896 | 85.21292 | 568 ft | 2 kts | 20° |
| 2026-05-04 06:05 | 56.38948 | 85.21523 | 574 ft | 0 kts | 123° |
| 2026-05-04 06:06 | 56.38947 | 85.21526 | 574 ft | 2 kts | 123° |
| 2026-05-04 06:06 | 56.38938 | 85.21550 | 574 ft | 2 kts | 125° |
| 2026-05-04 06:06 | 56.38908 | 85.21633 | 574 ft | 11 kts | 120° |
| 2026-05-04 06:06 | 56.38859 | 85.21690 | 570 ft | 9 kts | 195° |
| 2026-05-04 06:07 | 56.38843 | 85.21674 | 571 ft | 0 kts | 212° |
| 2026-05-04 06:07 | 56.38806 | 85.21633 | 574 ft | 21 kts | 213° |
| 2026-05-04 06:07 | 56.38454 | 85.21209 | 571 ft | 99 kts | 213° |
| 2026-05-04 06:08 | 56.37690 | 85.20288 | 574 ft | 162 kts | 215° |
| 2026-05-04 06:08 | 56.36690 | 85.19097 | 1093 ft | 174 kts | 214° |
| 2026-05-04 06:08 | 56.35630 | 85.18064 | 2064 ft | 174 kts | 199° |
| 2026-05-04 06:08 | 56.34375 | 85.18251 | 2454 ft | 198 kts | 149° |
| 2026-05-04 06:09 | 56.33510 | 85.20246 | 2703 ft | 215 kts | 99° |
| 2026-05-04 06:09 | 56.33675 | 85.22867 | 3030 ft | 222 kts | 56° |
| 2026-05-04 06:11 | 56.45191 | 85.27237 | 7541 ft | 262 kts | 3° |
| 2026-05-04 06:11 | 56.47007 | 85.27654 | 8387 ft | 263 kts | 3° |
| 2026-05-04 06:13 | 56.60928 | 85.30927 | 11386 ft | 346 kts | 4° |
| 2026-05-04 06:14 | 56.71700 | 85.29289 | 14135 ft | 352 kts | 330° |
| 2026-05-04 06:14 | 56.73737 | 85.26803 | 14680 ft | 355 kts | 323° |
| 2026-05-04 06:15 | 56.75734 | 85.24123 | 15235 ft | 357 kts | 324° |
| 2026-05-04 06:15 | 56.77748 | 85.21446 | 15765 ft | 360 kts | 324° |
| 2026-05-04 06:15 | 56.79093 | 85.19662 | 16122 ft | 361 kts | 324° |
| 2026-05-04 06:15 | 56.81131 | 85.16956 | 16662 ft | 364 kts | 324° |